createdAt,value
2018-11-12T07:24:48.580Z,56.77
2018-11-12T07:27:17.188Z,68.03
2018-11-12T07:29:45.401Z,65.33
2018-11-12T07:32:13.656Z,63.23
2018-11-12T07:34:41.890Z,64.23
2018-11-12T07:37:10.105Z,61.40
2018-11-12T07:39:41.648Z,59.60
2018-11-12T07:42:09.956Z,52.90
2018-11-12T07:44:38.155Z,56.07
2018-11-12T07:47:06.381Z,42.63
2018-11-12T07:49:34.627Z,41.10
2018-11-12T07:52:02.860Z,42.27
2018-11-12T07:54:31.444Z,41.23
2018-11-12T07:56:59.661Z,45.37
2018-11-12T07:59:27.921Z,35.20
2018-11-12T08:01:56.169Z,35.20
2018-11-12T08:04:24.426Z,34.27
2018-11-12T08:06:52.664Z,32.67
2018-11-12T08:09:20.920Z,28.73
2018-11-12T08:11:49.196Z,26.77
2018-11-12T08:14:17.422Z,27.67
2018-11-12T08:16:45.648Z,26.80
2018-11-12T08:19:13.892Z,27.73
2018-11-12T08:21:42.139Z,28.73
2018-11-12T08:24:10.473Z,28.03
2018-11-12T08:26:38.619Z,24.60
2018-11-12T08:29:06.856Z,26.53
2018-11-12T08:31:35.329Z,28.77
2018-11-12T08:34:03.584Z,25.03
2018-11-12T08:36:31.820Z,25.50
2018-11-12T08:39:00.114Z,23.53
2018-11-12T08:41:28.349Z,23.00
2018-11-12T08:43:56.592Z,24.73
2018-11-12T08:46:31.491Z,22.07
2018-11-12T08:48:59.798Z,21.07
2018-11-12T08:51:27.992Z,24.37
2018-11-12T08:53:56.238Z,18.63
2018-11-12T08:56:24.452Z,22.93
2018-11-12T08:58:52.694Z,20.50
2018-11-12T09:01:20.938Z,19.67
2018-11-12T09:03:49.231Z,20.17
2018-11-12T09:06:17.440Z,20.13
2018-11-12T09:08:45.684Z,21.23
2018-11-12T09:11:13.921Z,19.23
2018-11-12T09:13:42.795Z,18.87
2018-11-12T09:16:10.413Z,15.90
2018-11-12T09:18:38.667Z,16.23
2018-11-12T09:21:06.896Z,17.80
2018-11-12T09:23:35.147Z,14.50
2018-11-12T09:26:03.407Z,14.57
2018-11-12T09:28:31.652Z,16.00
2018-11-12T09:31:00.989Z,12.37
2018-11-12T09:33:28.140Z,12.97
2018-11-12T09:35:56.398Z,16.43
2018-11-12T09:38:24.666Z,12.47
2018-11-12T09:40:52.915Z,14.93
2018-11-12T09:43:21.157Z,11.27
2018-11-12T09:45:49.431Z,12.10
2018-11-12T09:48:17.660Z,12.40
2018-11-12T09:50:45.917Z,14.13
2018-11-12T09:53:14.140Z,12.20
2018-11-12T09:55:42.407Z,12.47
2018-11-12T09:58:10.659Z,12.37
2018-11-12T10:00:39.076Z,9.90
2018-11-12T10:03:07.734Z,11.80
2018-11-12T10:05:37.077Z,12.07
2018-11-12T10:08:10.637Z,13.07
2018-11-12T10:10:44.299Z,10.77
2018-11-12T10:13:14.630Z,13.03
2018-11-12T10:15:43.519Z,15.17
2018-11-12T10:20:37.740Z,16.63
2018-11-12T10:23:05.991Z,14.20
2018-11-12T10:25:34.243Z,12.17
2018-11-12T10:28:02.472Z,13.33
2018-11-12T10:30:30.734Z,10.80
2018-11-12T10:32:58.966Z,16.83
2018-11-12T10:35:27.217Z,12.07
2018-11-12T10:37:55.440Z,13.37
2018-11-12T10:40:24.538Z,15.10
2018-11-12T10:42:52.865Z,13.53
2018-11-12T10:45:21.172Z,13.00
2018-11-12T10:47:50.447Z,11.97
2018-11-12T10:50:18.712Z,14.77
2018-11-12T10:52:46.949Z,12.53
2018-11-12T10:55:16.698Z,13.13
2018-11-12T10:57:45.384Z,13.10
2018-11-12T11:00:24.207Z,15.50
2018-11-12T11:02:58.505Z,13.27
2018-11-12T11:05:26.768Z,12.60
2018-11-12T11:07:55.117Z,16.37
2018-11-12T11:10:26.483Z,14.97
2018-11-12T11:12:55.320Z,21.63
2018-11-12T11:15:23.582Z,19.67
2018-11-12T11:17:51.807Z,16.20
2018-11-12T11:20:20.043Z,16.53
2018-11-12T11:22:48.275Z,15.27
2018-11-12T11:25:16.520Z,14.57
2018-11-12T11:27:44.753Z,14.90
2018-11-12T11:30:16.153Z,15.23
2018-11-12T11:32:44.530Z,16.30
2018-11-12T11:35:13.916Z,16.97
2018-11-12T11:37:42.158Z,15.63
2018-11-12T11:40:20.395Z,14.17
2018-11-12T11:42:48.579Z,14.30
2018-11-12T11:45:17.585Z,17.27
2018-11-12T11:47:46.700Z,15.73
2018-11-12T11:50:16.330Z,14.60
2018-11-12T11:52:44.494Z,18.27
2018-11-12T11:55:14.120Z,16.23
2018-11-12T11:57:42.746Z,17.47
2018-11-12T12:00:15.740Z,19.37
2018-11-12T12:02:44.852Z,15.60
2018-11-12T12:05:14.072Z,15.57
2018-11-12T12:07:42.380Z,15.07
2018-11-12T12:10:11.426Z,16.00
2018-11-12T12:12:39.922Z,15.93
2018-11-12T12:15:09.564Z,16.07
2018-11-12T12:17:37.959Z,15.93
2018-11-12T12:20:07.788Z,15.63
2018-11-12T12:22:36.033Z,17.30
2018-11-12T12:25:04.954Z,16.43
2018-11-12T12:27:33.132Z,19.03
2018-11-12T12:30:01.367Z,17.63
2018-11-12T12:32:29.613Z,14.73
2018-11-12T12:34:57.840Z,15.57
2018-11-12T12:37:26.088Z,17.17
2018-11-12T12:39:54.321Z,14.13
2018-11-12T12:42:22.602Z,27.57
2018-11-12T12:44:50.884Z,16.30
2018-11-12T12:47:19.132Z,14.47
2018-11-12T12:49:47.356Z,14.63
2018-11-12T12:52:15.613Z,18.57
2018-11-12T12:54:43.845Z,15.23
2018-11-12T12:57:12.102Z,16.00
2018-11-12T12:59:40.482Z,12.63
2018-11-12T13:02:08.748Z,27.07
2018-11-12T13:04:37.032Z,16.90
2018-11-12T13:07:05.268Z,15.57
2018-11-12T13:09:33.504Z,16.23
2018-11-12T13:12:01.741Z,13.63
2018-11-12T13:14:29.989Z,12.83
2018-11-12T13:16:58.263Z,13.47
2018-11-12T13:19:26.509Z,17.40
2018-11-12T13:21:54.748Z,15.03
2018-11-12T13:24:22.972Z,18.20
2018-11-12T13:26:51.217Z,18.03
2018-11-12T13:29:19.532Z,17.80
2018-11-12T13:31:47.784Z,18.07
2018-11-12T13:34:16.012Z,18.67
2018-11-12T13:36:44.257Z,19.03
2018-11-12T13:39:13.341Z,19.20
2018-11-12T13:41:41.820Z,20.17
2018-11-12T13:44:10.201Z,15.93
2018-11-12T13:46:43.873Z,23.57
2018-11-12T13:49:12.113Z,28.30
2018-11-12T13:51:40.375Z,29.33
2018-11-12T13:54:09.102Z,18.90
2018-11-12T13:56:37.353Z,23.40
2018-11-12T13:59:05.666Z,22.77
2018-11-12T14:01:33.909Z,21.40
2018-11-12T14:04:02.136Z,18.30
2018-11-12T14:06:30.397Z,21.47
2018-11-12T14:08:58.625Z,18.70
2018-11-12T14:11:26.857Z,22.77
2018-11-12T14:13:55.758Z,20.07
2018-11-12T14:16:23.936Z,20.50
2018-11-12T14:18:52.191Z,20.93
2018-11-12T14:21:20.548Z,19.70
2018-11-12T14:23:48.698Z,20.50
2018-11-12T14:26:16.928Z,21.20
2018-11-12T14:28:45.259Z,24.87
2018-11-12T14:31:13.416Z,26.73
2018-11-12T14:33:41.669Z,20.93
2018-11-12T14:36:09.970Z,20.30
2018-11-12T14:38:38.160Z,24.43
2018-11-12T14:41:06.413Z,24.00
2018-11-12T14:43:34.676Z,22.60
2018-11-12T14:46:02.920Z,22.90
2018-11-12T14:48:31.174Z,22.50
2018-11-12T14:50:59.399Z,21.27
2018-11-12T14:53:27.664Z,26.53
2018-11-12T14:55:55.892Z,25.97
2018-11-12T14:58:24.149Z,24.83
2018-11-12T15:00:52.390Z,22.23
2018-11-12T15:03:20.644Z,22.03
2018-11-12T15:05:48.876Z,20.73
2018-11-12T15:08:17.128Z,25.20
2018-11-12T15:10:45.356Z,26.40
2018-11-12T15:13:13.603Z,27.77
2018-11-12T15:15:41.840Z,31.03
2018-11-12T15:18:10.097Z,26.27
2018-11-12T15:20:38.333Z,25.87
2018-11-12T15:23:06.585Z,27.27
2018-11-12T15:25:34.816Z,27.43
2018-11-12T15:28:03.085Z,28.23
2018-11-12T15:30:31.325Z,22.90
2018-11-12T15:32:59.562Z,26.10
2018-11-12T15:35:27.816Z,25.67
2018-11-12T15:37:56.048Z,26.10
2018-11-12T15:40:24.292Z,29.00
2018-11-12T15:42:52.538Z,25.57
2018-11-12T15:45:22.059Z,26.73
2018-11-12T15:47:50.565Z,26.33
2018-11-12T15:50:23.385Z,24.03
2018-11-12T15:52:51.612Z,28.33
2018-11-12T15:55:19.874Z,28.30
2018-11-12T15:57:48.208Z,31.13
2018-11-12T16:00:17.027Z,30.77
2018-11-12T16:02:45.264Z,30.77
2018-11-12T16:05:13.988Z,28.13
2018-11-12T16:07:42.346Z,31.90
2018-11-12T16:10:13.898Z,25.43
2018-11-12T16:12:42.165Z,24.60
2018-11-12T16:15:11.177Z,24.40
2018-11-12T16:17:39.809Z,25.33
2018-11-12T16:20:16.018Z,29.57
2018-11-12T16:22:44.896Z,27.40
2018-11-12T16:25:13.214Z,27.70
2018-11-12T16:27:41.833Z,30.17
2018-11-12T16:30:10.642Z,31.57
2018-11-12T16:32:39.330Z,27.67
2018-11-12T16:35:09.616Z,28.77
2018-11-12T16:37:37.853Z,26.47
2018-11-12T16:40:06.411Z,24.57
2018-11-12T16:42:34.621Z,29.83
2018-11-12T16:45:02.942Z,27.47
2018-11-12T16:47:31.168Z,27.87
2018-11-12T16:49:59.428Z,30.40
2018-11-12T16:52:27.652Z,29.93
2018-11-12T16:54:55.900Z,35.03
2018-11-12T16:57:24.128Z,31.77
2018-11-12T16:59:52.388Z,33.43
2018-11-12T17:02:20.617Z,27.73
2018-11-12T17:04:48.872Z,33.67
2018-11-12T17:07:17.112Z,35.20
2018-11-12T17:09:45.504Z,35.90
2018-11-12T17:12:13.753Z,34.87
2018-11-12T17:14:41.985Z,36.10
2018-11-12T17:17:10.207Z,32.53
2018-11-12T17:19:38.428Z,30.67
2018-11-12T17:22:06.672Z,32.17
2018-11-12T17:24:34.898Z,36.23
2018-11-12T17:27:03.153Z,34.13
2018-11-12T17:29:31.393Z,37.73
2018-11-12T17:31:59.657Z,40.03
2018-11-12T17:34:27.889Z,37.70
2018-11-12T17:36:56.136Z,42.43
2018-11-12T17:39:24.367Z,35.83
2018-11-12T17:41:52.642Z,33.67
2018-11-12T17:44:20.859Z,37.83
2018-11-12T17:46:49.109Z,36.50
2018-11-12T17:49:17.334Z,35.60
2018-11-12T17:51:45.624Z,37.43
2018-11-12T17:54:13.850Z,39.43
2018-11-12T17:56:42.106Z,37.83
2018-11-12T17:59:10.340Z,40.97
2018-11-12T18:01:38.677Z,42.57
2018-11-12T18:04:06.848Z,36.80
2018-11-12T18:06:35.112Z,34.80
2018-11-12T18:09:04.072Z,42.37
2018-11-12T18:11:32.328Z,41.60
2018-11-12T18:14:00.560Z,37.23
2018-11-12T18:16:28.812Z,37.50
2018-11-12T18:18:57.041Z,39.77
2018-11-12T18:21:25.281Z,38.40
2018-11-12T18:23:53.508Z,37.40
2018-11-12T18:26:21.756Z,43.60
2018-11-12T18:28:49.989Z,38.17
2018-11-12T18:31:18.504Z,40.03
2018-11-12T18:33:46.540Z,39.93
2018-11-12T18:36:14.805Z,42.07
2018-11-12T18:38:43.032Z,38.57
2018-11-12T18:41:11.276Z,35.90
2018-11-12T18:43:39.522Z,36.33
2018-11-12T18:46:07.789Z,36.80
2018-11-12T18:48:36.025Z,39.57
2018-11-12T18:51:04.279Z,35.37
2018-11-12T18:53:32.516Z,41.13
2018-11-12T18:56:00.774Z,41.43
2018-11-12T18:58:29.024Z,41.40
2018-11-12T19:00:57.244Z,36.43
2018-11-12T19:03:25.500Z,37.93
2018-11-12T19:05:53.724Z,45.00
2018-11-12T19:08:21.974Z,42.20
2018-11-12T19:10:50.219Z,43.97
2018-11-12T19:13:18.472Z,41.73
2018-11-12T19:15:46.709Z,44.13
2018-11-12T19:18:14.966Z,37.73
2018-11-12T19:20:43.200Z,37.00
2018-11-12T19:23:11.454Z,37.10
2018-11-12T19:25:39.693Z,40.13
2018-11-12T19:28:07.944Z,36.20
2018-11-12T19:30:36.185Z,37.87
2018-11-12T19:33:04.636Z,36.40
2018-11-12T19:35:39.461Z,33.53
2018-11-12T19:38:07.700Z,32.13
2018-11-12T19:40:35.926Z,35.83
2018-11-12T19:43:04.196Z,40.90
2018-11-12T19:45:32.433Z,34.63
2018-11-12T19:48:00.683Z,35.17
2018-11-12T19:50:29.520Z,35.83
2018-11-12T19:52:58.508Z,35.90
2018-11-12T19:55:26.755Z,35.63
2018-11-12T19:57:55.004Z,37.23
2018-11-12T20:00:24.674Z,36.83
2018-11-12T20:02:54.217Z,39.00
2018-11-12T20:05:22.481Z,32.97
2018-11-12T20:07:50.720Z,34.30
2018-11-12T20:10:20.156Z,31.23
2018-11-12T20:12:48.392Z,32.97
2018-11-12T20:15:17.947Z,31.17
2018-11-12T20:17:47.054Z,35.27
2018-11-12T20:20:21.471Z,36.27
2018-11-12T20:22:50.131Z,33.40
2018-11-12T20:25:19.112Z,32.87
2018-11-12T20:27:48.083Z,31.07
2018-11-12T20:30:19.023Z,32.27
2018-11-12T20:32:47.499Z,31.30
2018-11-12T20:35:15.765Z,32.47
2018-11-12T20:37:44.028Z,32.63
2018-11-12T20:40:13.072Z,29.33
2018-11-12T20:42:41.824Z,35.30
2018-11-12T20:45:11.177Z,31.23
2018-11-12T20:47:40.016Z,30.33
2018-11-12T20:50:08.861Z,28.30
2018-11-12T20:52:37.171Z,32.67
2018-11-12T20:55:06.166Z,28.83
2018-11-12T20:57:34.452Z,30.40
2018-11-12T21:00:02.704Z,29.50
2018-11-12T21:02:30.988Z,30.40
2018-11-12T21:04:59.216Z,31.30
2018-11-12T21:07:27.446Z,31.73
2018-11-12T21:09:55.694Z,30.40
2018-11-12T21:12:23.927Z,31.00
2018-11-12T21:14:52.172Z,30.07
2018-11-12T21:17:20.401Z,28.43
2018-11-12T21:19:48.649Z,29.33
2018-11-12T21:22:16.877Z,29.83
2018-11-12T21:24:45.124Z,32.03
2018-11-12T21:27:13.360Z,29.93
2018-11-12T21:29:41.607Z,27.80
2018-11-12T21:32:09.837Z,33.10
2018-11-12T21:34:38.084Z,31.30
2018-11-12T21:37:06.362Z,30.37
